createdAt,value
2019-03-18T00:00:56.398Z,810.71
2019-03-18T00:01:56.395Z,810.71
2019-03-18T00:02:56.401Z,810.76
2019-03-18T00:03:56.408Z,810.74
2019-03-18T00:04:56.412Z,810.71
2019-03-18T00:05:56.422Z,810.72
2019-03-18T00:06:56.417Z,810.66
2019-03-18T00:07:56.424Z,810.72
2019-03-18T00:08:56.427Z,810.67
2019-03-18T00:09:56.438Z,810.69
2019-03-18T00:10:56.442Z,810.68
2019-03-18T00:11:56.445Z,810.71
2019-03-18T00:12:56.453Z,810.71
2019-03-18T00:13:56.459Z,810.70
2019-03-18T00:15:01.257Z,810.66
2019-03-18T00:15:56.469Z,810.69
2019-03-18T00:16:56.473Z,810.66
2019-03-18T00:17:56.473Z,810.64
2019-03-18T00:18:56.478Z,810.64
2019-03-18T00:19:56.485Z,810.67
2019-03-18T00:20:56.492Z,810.66
2019-03-18T00:21:56.493Z,810.65
2019-03-18T00:22:56.498Z,810.61
2019-03-18T00:23:56.507Z,810.67
2019-03-18T00:24:56.513Z,810.66
2019-03-18T00:25:56.513Z,810.71
2019-03-18T00:26:56.516Z,810.70
2019-03-18T00:27:56.524Z,810.70
2019-03-18T00:28:56.532Z,810.72
2019-03-18T00:29:56.531Z,810.68
2019-03-18T00:30:56.536Z,810.64
2019-03-18T00:31:56.547Z,810.66
2019-03-18T00:32:56.545Z,810.68
2019-03-18T00:33:56.557Z,810.62
2019-03-18T00:34:56.561Z,810.61
2019-03-18T00:35:56.563Z,810.61
2019-03-18T00:36:56.596Z,810.64
2019-03-18T00:37:56.573Z,810.65
2019-03-18T00:38:56.575Z,810.67
2019-03-18T00:39:56.583Z,810.65
2019-03-18T00:40:56.587Z,810.65
2019-03-18T00:41:56.594Z,810.67
2019-03-18T00:42:56.593Z,810.69
2019-03-18T00:43:56.604Z,810.66
2019-03-18T00:44:56.608Z,810.65
2019-03-18T00:45:56.611Z,810.67
2019-03-18T00:46:56.616Z,810.67
2019-03-18T00:47:56.626Z,810.63
2019-03-18T00:48:56.624Z,810.64
2019-03-18T00:49:56.628Z,810.63
2019-03-18T00:50:56.647Z,810.66
2019-03-18T00:51:56.638Z,810.61
2019-03-18T00:52:56.638Z,810.64
2019-03-18T00:53:56.654Z,810.61
2019-03-18T00:54:56.648Z,810.61
2019-03-18T00:55:56.654Z,810.65
2019-03-18T00:56:56.663Z,810.67
2019-03-18T00:57:56.668Z,810.61
2019-03-18T00:58:56.666Z,810.59
2019-03-18T00:59:56.675Z,810.63
2019-03-18T01:00:56.679Z,810.58
2019-03-18T01:01:56.683Z,810.58
2019-03-18T01:02:56.701Z,810.61
2019-03-18T01:03:56.692Z,810.56
2019-03-18T01:04:56.698Z,810.57
2019-03-18T01:05:56.699Z,810.53
2019-03-18T01:06:56.703Z,810.54
2019-03-18T01:07:56.709Z,810.52
2019-03-18T01:08:56.713Z,810.57
2019-03-18T01:09:56.717Z,810.53
2019-03-18T01:10:56.721Z,810.60
2019-03-18T01:11:56.743Z,810.53
2019-03-18T01:12:56.731Z,810.47
2019-03-18T01:13:56.739Z,810.43
2019-03-18T01:14:56.739Z,810.38
2019-03-18T01:15:56.747Z,810.47
2019-03-18T01:16:56.752Z,810.51
2019-03-18T01:17:56.757Z,810.49
2019-03-18T01:18:56.782Z,810.51
2019-03-18T01:19:56.767Z,810.49
2019-03-18T01:20:56.767Z,810.47
2019-03-18T01:21:56.773Z,810.46
2019-03-18T01:22:56.776Z,810.50
2019-03-18T01:23:56.785Z,810.53
2019-03-18T01:24:56.784Z,810.48
2019-03-18T01:25:56.794Z,810.49
2019-03-18T01:26:56.797Z,810.55
2019-03-18T01:27:56.797Z,810.53
2019-03-18T01:28:56.807Z,810.48
2019-03-18T01:29:56.811Z,810.47
2019-03-18T01:30:56.814Z,810.53
2019-03-18T01:31:56.818Z,810.53
2019-03-18T01:32:56.818Z,810.51
2019-03-18T01:33:56.825Z,810.49
2019-03-18T01:34:56.827Z,810.57
2019-03-18T01:35:56.835Z,810.58
2019-03-18T01:36:56.839Z,810.59
2019-03-18T01:37:56.844Z,810.57
2019-03-18T01:38:56.847Z,810.58
2019-03-18T01:39:56.853Z,810.53
2019-03-18T01:40:56.857Z,810.55
2019-03-18T01:41:56.856Z,810.49
2019-03-18T01:42:56.863Z,810.52
2019-03-18T01:43:56.869Z,810.54
2019-03-18T01:44:56.875Z,810.50
2019-03-18T01:45:56.879Z,810.50
2019-03-18T01:46:56.878Z,810.57
2019-03-18T01:47:56.884Z,810.57
2019-03-18T01:48:56.896Z,810.52
2019-03-18T01:49:56.892Z,810.48
2019-03-18T01:50:56.897Z,810.48
2019-03-18T01:51:56.897Z,810.52
2019-03-18T01:52:56.902Z,810.55
2019-03-18T01:53:56.905Z,810.57
2019-03-18T01:54:56.912Z,810.52
2019-03-18T01:55:56.911Z,810.53
2019-03-18T01:56:56.915Z,810.48
2019-03-18T01:57:56.927Z,810.48
2019-03-18T01:58:56.929Z,810.51
2019-03-18T01:59:56.931Z,810.53
2019-03-18T02:00:56.933Z,810.50
2019-03-18T02:01:56.935Z,810.50
2019-03-18T02:02:56.938Z,810.49
2019-03-18T02:03:56.951Z,810.50
2019-03-18T02:04:56.946Z,810.49
2019-03-18T02:05:56.957Z,810.39
2019-03-18T02:06:56.957Z,810.46
2019-03-18T02:07:56.960Z,810.42
2019-03-18T02:08:56.961Z,810.43
2019-03-18T02:09:56.967Z,810.43
2019-03-18T02:10:56.974Z,810.46
2019-03-18T02:11:56.978Z,810.46
2019-03-18T02:12:56.977Z,810.41
2019-03-18T02:13:56.981Z,810.43
2019-03-18T02:14:56.990Z,810.40
2019-03-18T02:15:56.993Z,810.40
2019-03-18T02:16:56.994Z,810.38
2019-03-18T02:17:57.000Z,810.33
2019-03-18T02:18:57.004Z,810.35
2019-03-18T02:19:57.006Z,810.32
2019-03-18T02:20:57.015Z,810.33
2019-03-18T02:21:57.013Z,810.33
2019-03-18T02:22:57.018Z,810.27
2019-03-18T02:23:57.027Z,810.28
2019-03-18T02:24:57.026Z,810.25
2019-03-18T02:25:57.030Z,810.25
2019-03-18T02:26:57.031Z,810.22
2019-03-18T02:27:57.035Z,810.25
2019-03-18T02:28:57.037Z,810.23
2019-03-18T02:29:57.050Z,810.23
2019-03-18T02:30:57.051Z,810.26
2019-03-18T02:31:57.053Z,810.25
2019-03-18T02:32:57.057Z,810.24
2019-03-18T02:33:57.057Z,810.21
2019-03-18T02:34:57.061Z,810.15
2019-03-18T02:35:57.070Z,810.13
2019-03-18T02:36:57.072Z,810.14
2019-03-18T02:37:57.075Z,810.14
2019-03-18T02:38:57.088Z,810.15
2019-03-18T02:39:57.079Z,810.14
2019-03-18T02:40:57.087Z,810.16
2019-03-18T02:41:57.091Z,810.13
2019-03-18T02:42:57.093Z,810.15
2019-03-18T02:43:57.092Z,810.09
2019-03-18T02:44:57.097Z,810.08
2019-03-18T02:46:09.400Z,810.09
2019-03-18T02:46:57.109Z,810.06
2019-03-18T02:47:57.118Z,810.04
2019-03-18T02:48:57.117Z,810.06
2019-03-18T02:49:57.113Z,810.10
2019-03-18T02:50:57.122Z,810.11
2019-03-18T02:51:57.127Z,810.11
2019-03-18T02:52:57.178Z,810.09
2019-03-18T02:53:57.135Z,810.14
2019-03-18T02:54:57.134Z,810.09
2019-03-18T02:55:57.142Z,810.09
2019-03-18T02:56:57.144Z,810.11
2019-03-18T02:57:57.147Z,810.10
2019-03-18T02:58:57.150Z,810.15
2019-03-18T02:59:57.161Z,810.15
2019-03-18T03:00:57.156Z,810.17
2019-03-18T03:01:57.161Z,810.14
2019-03-18T03:02:57.169Z,810.12
2019-03-18T03:03:57.170Z,810.09
2019-03-18T03:04:57.172Z,810.08
2019-03-18T03:05:57.175Z,810.07
2019-03-18T03:06:57.186Z,810.09
2019-03-18T03:07:57.181Z,810.11
2019-03-18T03:08:57.185Z,810.09
2019-03-18T03:09:57.191Z,810.08
2019-03-18T03:10:57.194Z,810.06
2019-03-18T03:11:57.201Z,810.13
2019-03-18T03:12:57.206Z,810.08
2019-03-18T03:13:57.207Z,810.10
2019-03-18T03:14:57.209Z,810.08
2019-03-18T03:15:57.217Z,810.07
2019-03-18T03:16:57.234Z,810.09
2019-03-18T03:17:57.220Z,810.08
2019-03-18T03:18:57.226Z,810.07
2019-03-18T03:19:57.234Z,810.08
2019-03-18T03:20:57.237Z,810.03
2019-03-18T03:21:57.242Z,810.04
2019-03-18T03:22:57.248Z,810.03
2019-03-18T03:23:57.249Z,810.03
2019-03-18T03:24:57.249Z,810.04
2019-03-18T03:25:57.259Z,810.07
2019-03-18T03:26:57.262Z,810.06
2019-03-18T03:27:57.263Z,810.06
2019-03-18T03:28:57.266Z,810.07
2019-03-18T03:29:57.278Z,810.04
2019-03-18T03:30:57.282Z,810.05
2019-03-18T03:31:57.283Z,810.03
2019-03-18T03:32:57.284Z,810.08
2019-03-18T03:33:57.303Z,810.11
2019-03-18T03:34:57.298Z,810.08
2019-03-18T03:35:57.293Z,810.09
2019-03-18T03:36:57.301Z,810.07
2019-03-18T03:37:57.304Z,810.14
2019-03-18T03:38:57.308Z,810.14
2019-03-18T03:39:57.311Z,810.11
2019-03-18T03:40:57.317Z,810.12
2019-03-18T03:41:57.328Z,810.10
2019-03-18T03:42:57.328Z,810.11
2019-03-18T03:43:57.338Z,810.10
2019-03-18T03:44:57.342Z,810.11
2019-03-18T03:45:57.342Z,810.13
2019-03-18T03:46:57.345Z,810.13
2019-03-18T03:47:57.347Z,810.12
2019-03-18T03:48:57.348Z,810.10
2019-03-18T03:49:57.355Z,810.09
2019-03-18T03:50:57.362Z,810.12
2019-03-18T03:51:57.364Z,810.13
2019-03-18T03:52:57.369Z,810.09
2019-03-18T03:53:57.381Z,810.04
2019-03-18T03:54:57.375Z,810.08
2019-03-18T03:55:57.378Z,810.04
2019-03-18T03:56:57.382Z,810.02
2019-03-18T03:57:57.390Z,810.01
2019-03-18T03:58:57.403Z,809.99
2019-03-18T03:59:57.424Z,810.01
2019-03-18T04:00:57.402Z,810.00
2019-03-18T04:01:57.413Z,810.03
2019-03-18T04:02:57.414Z,810.02
2019-03-18T04:03:57.416Z,810.03
2019-03-18T04:04:57.414Z,810.01
2019-03-18T04:05:57.420Z,809.98
2019-03-18T04:06:57.426Z,809.98
2019-03-18T04:07:57.432Z,810.03
2019-03-18T04:08:57.439Z,809.98
2019-03-18T04:09:57.437Z,810.01
2019-03-18T04:10:57.445Z,809.96
2019-03-18T04:11:57.442Z,809.99
2019-03-18T04:12:57.453Z,809.98
2019-03-18T04:13:57.478Z,809.94
2019-03-18T04:14:57.460Z,809.95
2019-03-18T04:15:57.576Z,809.93
2019-03-18T04:17:04.269Z,809.97
2019-03-18T04:17:57.472Z,810.00
2019-03-18T04:18:57.475Z,810.01
2019-03-18T04:19:57.474Z,810.00
2019-03-18T04:20:57.483Z,810.01
2019-03-18T04:21:57.490Z,810.02
2019-03-18T04:22:57.487Z,810.03
2019-03-18T04:23:57.492Z,810.02
2019-03-18T04:24:57.508Z,810.04
2019-03-18T04:25:57.501Z,810.04
2019-03-18T04:26:57.508Z,810.07
2019-03-18T04:27:57.514Z,810.08
2019-03-18T04:28:57.515Z,810.09
2019-03-18T04:29:57.516Z,810.10
2019-03-18T04:30:57.538Z,810.10
2019-03-18T04:31:57.558Z,810.09
2019-03-18T04:32:57.530Z,810.08
2019-03-18T04:33:57.531Z,810.05
2019-03-18T04:34:57.545Z,810.09
2019-03-18T04:35:57.542Z,810.06
2019-03-18T04:36:57.544Z,810.11
2019-03-18T04:37:57.568Z,810.10
2019-03-18T04:38:57.552Z,810.12
2019-03-18T04:39:57.557Z,810.15
2019-03-18T04:40:57.562Z,810.16
2019-03-18T04:41:57.565Z,810.19
2019-03-18T04:42:57.570Z,810.21
2019-03-18T04:43:57.579Z,810.25
2019-03-18T04:44:57.580Z,810.25
2019-03-18T04:45:57.579Z,810.25
2019-03-18T04:46:57.627Z,810.29
2019-03-18T04:47:57.593Z,810.30
2019-03-18T04:48:57.593Z,810.29
2019-03-18T04:49:57.597Z,810.28
2019-03-18T04:50:57.598Z,810.27
2019-03-18T04:51:57.602Z,810.29
2019-03-18T04:52:57.615Z,810.28
2019-03-18T04:53:57.623Z,810.33
2019-03-18T04:54:57.624Z,810.34
2019-03-18T04:55:57.623Z,810.34
2019-03-18T04:56:57.623Z,810.38
2019-03-18T04:57:57.625Z,810.38
2019-03-18T04:58:57.628Z,810.41
2019-03-18T04:59:57.638Z,810.38
2019-03-18T05:00:57.635Z,810.36
2019-03-18T05:01:57.645Z,810.40
2019-03-18T05:02:57.644Z,810.43
2019-03-18T05:03:57.650Z,810.43
2019-03-18T05:04:57.656Z,810.46
2019-03-18T05:05:57.655Z,810.44
2019-03-18T05:06:57.660Z,810.50
2019-03-18T05:07:57.663Z,810.50
2019-03-18T05:08:57.675Z,810.49
2019-03-18T05:09:57.671Z,810.49
2019-03-18T05:10:57.695Z,810.48
2019-03-18T05:11:57.681Z,810.54
2019-03-18T05:12:57.680Z,810.53
2019-03-18T05:13:57.785Z,810.60
2019-03-18T05:14:57.688Z,810.59
2019-03-18T05:15:57.693Z,810.60
2019-03-18T05:16:57.695Z,810.62
2019-03-18T05:17:57.704Z,810.60
2019-03-18T05:18:57.704Z,810.63
2019-03-18T05:19:57.706Z,810.65
2019-03-18T05:20:57.711Z,810.64
2019-03-18T05:21:57.720Z,810.65
2019-03-18T05:22:57.724Z,810.66
2019-03-18T05:23:57.722Z,810.60
2019-03-18T05:24:57.728Z,810.63
2019-03-18T05:25:57.795Z,810.60
2019-03-18T05:26:57.835Z,810.58
2019-03-18T05:27:57.746Z,810.59
2019-03-18T05:28:57.739Z,810.64
2019-03-18T05:29:57.748Z,810.65
2019-03-18T05:30:57.749Z,810.64
2019-03-18T05:31:57.749Z,810.71
2019-03-18T05:32:57.758Z,810.71
2019-03-18T05:33:57.761Z,810.70
2019-03-18T05:34:57.767Z,810.74
2019-03-18T05:35:57.767Z,810.74
2019-03-18T05:36:57.771Z,810.75
2019-03-18T05:37:57.772Z,810.74
2019-03-18T05:38:57.775Z,810.75
2019-03-18T05:39:57.778Z,810.74
2019-03-18T05:40:57.881Z,810.77
2019-03-18T05:41:57.793Z,810.76
2019-03-18T05:42:57.790Z,810.78
2019-03-18T05:43:57.795Z,810.68
2019-03-18T05:44:57.799Z,810.78
2019-03-18T05:45:57.808Z,810.87
2019-03-18T05:46:57.802Z,810.90
2019-03-18T05:47:57.812Z,810.97
2019-03-18T05:48:57.810Z,810.94
2019-03-18T05:49:57.813Z,810.96
2019-03-18T05:50:57.823Z,810.94
2019-03-18T05:51:57.843Z,810.93
2019-03-18T05:52:57.828Z,810.97
2019-03-18T05:53:57.832Z,811.00
2019-03-18T05:54:57.840Z,811.01
2019-03-18T05:55:57.835Z,811.04
2019-03-18T05:56:57.835Z,811.05
2019-03-18T05:57:57.838Z,811.08
2019-03-18T05:58:57.846Z,811.12
2019-03-18T05:59:57.848Z,811.10
2019-03-18T06:00:57.847Z,811.12
2019-03-18T06:01:57.852Z,811.12
2019-03-18T06:02:57.867Z,811.09
2019-03-18T06:03:57.858Z,811.10
2019-03-18T06:04:57.864Z,811.11
2019-03-18T06:05:57.867Z,811.14
2019-03-18T06:06:57.872Z,811.11
2019-03-18T06:07:57.880Z,811.09
2019-03-18T06:08:57.874Z,811.13
2019-03-18T06:09:57.876Z,811.15
2019-03-18T06:10:57.885Z,811.17
2019-03-18T06:11:57.884Z,811.20
2019-03-18T06:12:57.890Z,811.25
2019-03-18T06:13:57.892Z,811.26
2019-03-18T06:14:57.899Z,811.26
2019-03-18T06:15:57.901Z,811.31
2019-03-18T06:16:57.898Z,811.33
2019-03-18T06:17:58.002Z,811.38
2019-03-18T06:19:00.131Z,811.37
2019-03-18T06:19:57.910Z,811.37
2019-03-18T06:20:57.917Z,811.39
2019-03-18T06:21:57.920Z,811.37
2019-03-18T06:22:57.931Z,811.36
2019-03-18T06:23:57.927Z,811.31
2019-03-18T06:24:57.926Z,811.38
2019-03-18T06:25:57.933Z,811.35
2019-03-18T06:26:57.934Z,811.38
2019-03-18T06:27:57.938Z,811.36
2019-03-18T06:28:57.943Z,811.35
2019-03-18T06:29:57.949Z,811.39
2019-03-18T06:30:57.950Z,811.43
2019-03-18T06:31:57.960Z,811.42
2019-03-18T06:32:57.955Z,811.39
2019-03-18T06:33:57.960Z,811.41
2019-03-18T06:34:57.962Z,811.40
2019-03-18T06:35:57.970Z,811.45
2019-03-18T06:36:57.968Z,811.46
2019-03-18T06:37:57.973Z,811.41
2019-03-18T06:38:57.982Z,811.45
2019-03-18T06:39:57.983Z,811.45
2019-03-18T06:40:57.982Z,811.50
2019-03-18T06:41:57.987Z,811.49
2019-03-18T06:42:57.991Z,811.45
2019-03-18T06:43:57.997Z,811.45
2019-03-18T06:44:57.999Z,811.47
2019-03-18T06:45:58.003Z,811.51
2019-03-18T06:46:58.002Z,811.56
2019-03-18T06:48:04.787Z,811.48
2019-03-18T06:48:58.013Z,811.52
2019-03-18T06:49:58.017Z,811.52
2019-03-18T06:50:58.018Z,811.47
2019-03-18T06:51:58.033Z,811.53
2019-03-18T06:52:58.027Z,811.54
2019-03-18T06:53:58.025Z,811.61
2019-03-18T06:54:58.030Z,811.62
2019-03-18T06:55:58.037Z,811.59
2019-03-18T06:56:58.040Z,811.56
2019-03-18T06:57:58.040Z,811.58
2019-03-18T06:58:58.049Z,811.58
2019-03-18T06:59:58.050Z,811.60
2019-03-18T07:00:58.053Z,811.64
2019-03-18T07:01:58.057Z,811.65
2019-03-18T07:02:58.065Z,811.63
2019-03-18T07:03:58.067Z,811.62
2019-03-18T07:04:58.069Z,811.62
2019-03-18T07:05:58.072Z,811.68
2019-03-18T07:06:58.080Z,811.65
2019-03-18T07:07:58.083Z,811.61
2019-03-18T07:08:58.080Z,811.62
2019-03-18T07:09:58.089Z,811.69
2019-03-18T07:10:58.095Z,811.67
2019-03-18T07:11:58.094Z,811.67
2019-03-18T07:12:58.095Z,811.70
2019-03-18T07:13:58.104Z,811.66
2019-03-18T07:14:58.106Z,811.65
2019-03-18T07:16:00.143Z,811.68
2019-03-18T07:16:58.110Z,811.66
2019-03-18T07:17:58.119Z,811.65
2019-03-18T07:18:58.124Z,811.66
2019-03-18T07:19:58.128Z,811.64
2019-03-18T07:20:58.130Z,811.65
2019-03-18T07:21:58.131Z,811.70
2019-03-18T07:22:58.134Z,811.73
2019-03-18T07:23:58.148Z,811.71
2019-03-18T07:24:58.245Z,811.74
2019-03-18T07:25:58.217Z,811.67
2019-03-18T07:26:58.151Z,811.69
2019-03-18T07:27:58.158Z,811.66
2019-03-18T07:28:58.161Z,811.71
2019-03-18T07:29:58.164Z,811.73
2019-03-18T07:30:58.171Z,811.71
2019-03-18T07:31:58.173Z,811.76
2019-03-18T07:32:58.176Z,811.76
2019-03-18T07:33:59.857Z,811.79
2019-03-18T07:34:58.185Z,811.81
2019-03-18T07:35:58.193Z,811.83
2019-03-18T07:36:58.194Z,811.83
2019-03-18T07:37:58.195Z,811.89
2019-03-18T07:38:58.197Z,811.89
2019-03-18T07:39:58.208Z,811.89
2019-03-18T07:40:58.216Z,811.88
2019-03-18T07:41:58.213Z,811.92
2019-03-18T07:42:58.217Z,811.92
2019-03-18T07:43:58.218Z,811.88
2019-03-18T07:44:58.221Z,811.91
2019-03-18T07:45:58.226Z,811.92
2019-03-18T07:46:58.244Z,811.94
2019-03-18T07:47:58.235Z,811.92
2019-03-18T07:48:58.241Z,811.94
2019-03-18T07:49:58.246Z,812.00
2019-03-18T07:50:58.246Z,811.96
2019-03-18T07:51:58.255Z,812.00
2019-03-18T07:52:58.253Z,811.97
2019-03-18T07:53:58.258Z,811.95
2019-03-18T07:54:58.265Z,811.95
2019-03-18T07:55:58.269Z,811.96
2019-03-18T07:56:58.269Z,812.02
2019-03-18T07:57:58.286Z,812.01
2019-03-18T07:58:58.285Z,812.02
2019-03-18T07:59:58.282Z,812.05
2019-03-18T08:00:58.438Z,812.08
2019-03-18T08:01:58.290Z,812.09
2019-03-18T08:02:58.294Z,812.11
2019-03-18T08:03:58.303Z,812.13
2019-03-18T08:04:58.307Z,812.08
2019-03-18T08:05:58.332Z,812.15
2019-03-18T08:06:58.310Z,812.14
2019-03-18T08:07:58.314Z,812.14
2019-03-18T08:08:58.318Z,812.14
2019-03-18T08:09:58.322Z,812.16
2019-03-18T08:10:58.325Z,812.18
2019-03-18T08:11:58.330Z,812.19
2019-03-18T08:12:58.337Z,812.23
2019-03-18T08:13:58.341Z,812.27
2019-03-18T08:14:58.344Z,812.15
2019-03-18T08:15:58.351Z,812.20
2019-03-18T08:16:58.353Z,812.21
2019-03-18T08:17:58.354Z,812.20
2019-03-18T08:18:58.363Z,812.19
2019-03-18T08:19:58.364Z,812.21
2019-03-18T08:20:58.370Z,812.22
2019-03-18T08:21:58.377Z,812.23
2019-03-18T08:22:58.375Z,812.21
2019-03-18T08:23:58.385Z,812.26
2019-03-18T08:24:58.387Z,812.24
2019-03-18T08:25:58.393Z,812.29
2019-03-18T08:26:58.396Z,812.26
2019-03-18T08:27:58.399Z,812.27
2019-03-18T08:28:58.402Z,812.33
2019-03-18T08:29:58.409Z,812.39
2019-03-18T08:30:58.411Z,812.42
2019-03-18T08:31:58.421Z,812.41
2019-03-18T08:32:58.420Z,812.41
2019-03-18T08:33:58.426Z,812.43
2019-03-18T08:34:58.434Z,812.40
2019-03-18T08:35:58.441Z,812.39
2019-03-18T08:36:58.440Z,812.41
2019-03-18T08:37:58.444Z,812.43
2019-03-18T08:38:58.452Z,812.52
2019-03-18T08:39:58.459Z,812.52
2019-03-18T08:40:58.463Z,812.51
2019-03-18T08:41:58.469Z,812.49
2019-03-18T08:42:58.474Z,812.53
2019-03-18T08:43:58.479Z,812.53
2019-03-18T08:44:58.477Z,812.53
2019-03-18T08:45:58.487Z,812.54
2019-03-18T08:46:58.486Z,812.54
2019-03-18T08:47:58.497Z,812.61
2019-03-18T08:48:58.498Z,812.58
2019-03-18T08:49:58.506Z,812.63
2019-03-18T08:50:58.511Z,812.62
2019-03-18T08:51:58.514Z,812.62
2019-03-18T08:52:58.519Z,812.62
2019-03-18T08:53:58.521Z,812.62
2019-03-18T08:54:58.528Z,812.56
2019-03-18T08:55:58.535Z,812.61
2019-03-18T08:56:58.537Z,812.61
2019-03-18T08:57:58.544Z,812.66
2019-03-18T08:58:58.548Z,812.62
2019-03-18T08:59:58.557Z,812.67
2019-03-18T09:00:58.558Z,812.67
2019-03-18T09:01:58.564Z,812.69
2019-03-18T09:02:58.568Z,812.69
2019-03-18T09:03:58.578Z,812.71
2019-03-18T09:04:58.622Z,812.74
2019-03-18T09:05:58.590Z,812.74
2019-03-18T09:06:58.590Z,812.72
2019-03-18T09:07:58.600Z,812.78
2019-03-18T09:08:58.611Z,812.72
2019-03-18T09:09:58.612Z,812.72
2019-03-18T09:10:58.615Z,812.72
2019-03-18T09:11:58.622Z,812.71
2019-03-18T09:12:58.625Z,812.73
2019-03-18T09:13:58.629Z,812.73
2019-03-18T09:14:58.644Z,812.77
2019-03-18T09:15:58.643Z,812.78
2019-03-18T09:16:58.652Z,812.78
2019-03-18T09:17:58.673Z,812.78
2019-03-18T09:19:08.038Z,812.76
2019-03-18T09:19:58.663Z,812.74
2019-03-18T09:20:58.671Z,812.77
2019-03-18T09:21:58.676Z,812.78
2019-03-18T09:23:01.359Z,812.77
2019-03-18T09:23:58.689Z,812.78
2019-03-18T09:24:58.694Z,812.81
2019-03-18T09:25:58.697Z,812.81
2019-03-18T09:27:02.747Z,812.78
2019-03-18T09:27:58.713Z,812.77
2019-03-18T09:28:58.719Z,812.77
2019-03-18T09:29:58.724Z,812.74
2019-03-18T09:30:58.728Z,812.76
2019-03-18T09:31:58.734Z,812.77
2019-03-18T09:32:58.748Z,812.82
2019-03-18T09:33:58.748Z,812.81
2019-03-18T09:34:58.753Z,812.84
2019-03-18T09:35:58.761Z,812.84
2019-03-18T09:36:58.764Z,812.85
2019-03-18T09:37:58.769Z,812.87
2019-03-18T09:38:58.778Z,812.87
2019-03-18T09:39:58.785Z,812.88
2019-03-18T09:40:58.789Z,812.92
2019-03-18T09:41:58.794Z,812.85
2019-03-18T09:42:58.803Z,812.92
2019-03-18T09:43:58.807Z,812.91
2019-03-18T09:44:58.823Z,812.93
2019-03-18T09:45:58.829Z,812.93
2019-03-18T09:46:58.838Z,812.96
2019-03-18T09:47:58.843Z,812.98
2019-03-18T09:48:58.842Z,812.87
2019-03-18T09:49:58.849Z,812.93
2019-03-18T09:50:58.858Z,812.92
2019-03-18T09:51:58.867Z,812.97
2019-03-18T09:52:58.874Z,812.95
2019-03-18T09:53:58.878Z,812.98
2019-03-18T09:54:58.885Z,812.97
2019-03-18T09:55:58.893Z,812.94
2019-03-18T09:56:58.901Z,812.98
2019-03-18T09:57:58.903Z,812.97
2019-03-18T09:58:58.915Z,813.01
2019-03-18T09:59:58.918Z,812.96
2019-03-18T10:00:58.928Z,812.88
2019-03-18T10:01:58.935Z,812.95
2019-03-18T10:02:58.941Z,812.96
2019-03-18T10:03:58.947Z,812.96
2019-03-18T10:04:58.952Z,812.92
2019-03-18T10:05:58.963Z,812.93
2019-03-18T10:06:58.968Z,812.96
2019-03-18T10:07:58.978Z,812.95
2019-03-18T10:08:58.981Z,812.99
2019-03-18T10:09:58.988Z,812.97
2019-03-18T10:10:58.997Z,812.91
2019-03-18T10:11:59.003Z,812.96
2019-03-18T10:12:59.010Z,813.05
2019-03-18T10:13:59.016Z,812.98
2019-03-18T10:14:59.023Z,812.99
2019-03-18T10:15:59.033Z,812.95
2019-03-18T10:17:09.015Z,813.03
2019-03-18T10:17:59.048Z,813.03
2019-03-18T10:18:59.051Z,812.99
2019-03-18T10:19:59.056Z,812.96
2019-03-18T10:20:59.066Z,812.97
2019-03-18T10:21:59.070Z,812.98
2019-03-18T10:22:59.079Z,812.98
2019-03-18T10:23:59.091Z,813.07
2019-03-18T10:24:59.091Z,813.04
2019-03-18T10:25:59.099Z,812.97
2019-03-18T10:26:59.110Z,812.90
2019-03-18T10:27:59.117Z,812.94
2019-03-18T10:28:59.126Z,812.85
2019-03-18T10:29:59.128Z,812.88
2019-03-18T10:30:59.136Z,812.95
2019-03-18T10:31:59.143Z,812.95
2019-03-18T10:32:59.148Z,812.93
2019-03-18T10:33:59.156Z,812.98
2019-03-18T10:34:59.165Z,812.92
2019-03-18T10:35:59.174Z,812.98
2019-03-18T10:36:59.180Z,812.95
2019-03-18T10:37:59.243Z,812.88
2019-03-18T10:38:59.194Z,813.00
2019-03-18T10:39:59.206Z,812.93
2019-03-18T10:40:59.794Z,812.86
2019-03-18T10:41:59.218Z,812.88
2019-03-18T10:42:59.220Z,812.97
2019-03-18T10:43:59.227Z,812.89
2019-03-18T10:44:59.234Z,812.83
2019-03-18T10:45:59.243Z,812.91
2019-03-18T10:46:59.250Z,812.88
2019-03-18T10:47:59.256Z,812.97
2019-03-18T10:48:59.273Z,812.97
2019-03-18T10:49:59.272Z,812.93
2019-03-18T10:50:59.275Z,812.94
2019-03-18T10:51:59.313Z,812.90
2019-03-18T10:52:59.288Z,812.92
2019-03-18T10:53:59.300Z,812.95
2019-03-18T10:54:59.314Z,812.99
2019-03-18T10:56:07.862Z,813.03
2019-03-18T10:56:59.315Z,813.03
2019-03-18T10:57:59.327Z,813.05
2019-03-18T10:58:59.332Z,812.97
2019-03-18T11:00:01.216Z,812.94
2019-03-18T11:00:59.339Z,813.01
2019-03-18T11:01:59.350Z,813.04
2019-03-18T11:02:59.375Z,813.10
2019-03-18T11:03:59.359Z,813.12
2019-03-18T11:04:59.367Z,813.12
2019-03-18T11:05:59.375Z,813.10
2019-03-18T11:06:59.384Z,813.15
2019-03-18T11:07:59.386Z,813.19
2019-03-18T11:08:59.395Z,813.22
2019-03-18T11:09:59.398Z,813.12
2019-03-18T11:10:59.402Z,813.17
2019-03-18T11:11:59.407Z,813.15
2019-03-18T11:12:59.418Z,813.14
2019-03-18T11:13:59.424Z,813.15
2019-03-18T11:14:59.433Z,813.17
2019-03-18T11:15:59.435Z,813.20
2019-03-18T11:16:59.442Z,813.28
2019-03-18T11:17:59.450Z,813.20
2019-03-18T11:18:59.452Z,813.25
2019-03-18T11:19:59.455Z,813.25
2019-03-18T11:20:59.463Z,813.29
2019-03-18T11:21:59.470Z,813.29
2019-03-18T11:22:59.477Z,813.28
2019-03-18T11:23:59.483Z,813.26
2019-03-18T11:24:59.488Z,813.28
2019-03-18T11:25:59.496Z,813.27
2019-03-18T11:26:59.499Z,813.27
2019-03-18T11:27:59.508Z,813.30
2019-03-18T11:28:59.511Z,813.26
2019-03-18T11:29:59.516Z,813.23
2019-03-18T11:30:59.523Z,813.32
2019-03-18T11:31:59.532Z,813.29
2019-03-18T11:32:59.535Z,813.30
2019-03-18T11:33:59.539Z,813.30
2019-03-18T11:34:59.550Z,813.20
2019-03-18T11:35:59.554Z,813.23
2019-03-18T11:36:59.555Z,813.21
2019-03-18T11:37:59.563Z,813.16
2019-03-18T11:38:59.570Z,813.19
2019-03-18T11:39:59.573Z,813.16
2019-03-18T11:40:59.580Z,813.16
2019-03-18T11:41:59.587Z,813.17
2019-03-18T11:42:59.595Z,813.16
2019-03-18T11:43:59.597Z,813.21
2019-03-18T11:44:59.670Z,813.25
2019-03-18T11:45:59.609Z,813.19
2019-03-18T11:46:59.617Z,813.11
2019-03-18T11:47:59.625Z,813.16
2019-03-18T11:48:59.626Z,813.11
2019-03-18T11:50:10.431Z,813.12
2019-03-18T11:50:59.652Z,813.08
2019-03-18T11:51:59.648Z,813.04
2019-03-18T11:52:59.654Z,813.07
2019-03-18T11:53:59.659Z,813.07
2019-03-18T11:54:59.665Z,813.02
2019-03-18T11:55:59.671Z,813.04
2019-03-18T11:56:59.675Z,813.05
2019-03-18T11:57:59.678Z,813.01
2019-03-18T11:58:59.688Z,813.02
2019-03-18T11:59:59.691Z,813.10
2019-03-18T12:00:59.700Z,813.08
2019-03-18T12:01:59.705Z,813.13
2019-03-18T12:02:59.706Z,813.11
2019-03-18T12:03:59.714Z,813.12
2019-03-18T12:04:59.719Z,813.09
2019-03-18T12:05:59.725Z,813.08
2019-03-18T12:06:59.729Z,813.12
2019-03-18T12:07:59.734Z,813.13
2019-03-18T12:08:59.744Z,813.13
2019-03-18T12:09:59.748Z,813.15
2019-03-18T12:10:59.754Z,813.13
2019-03-18T12:11:59.756Z,813.05
2019-03-18T12:12:59.780Z,813.08
2019-03-18T12:13:59.768Z,813.07
2019-03-18T12:14:59.776Z,813.02
2019-03-18T12:15:59.780Z,813.03
2019-03-18T12:16:59.784Z,813.02
2019-03-18T12:17:59.795Z,813.08
2019-03-18T12:18:59.803Z,813.04
2019-03-18T12:19:59.804Z,813.12
2019-03-18T12:20:59.810Z,812.96
2019-03-18T12:21:59.817Z,813.03
2019-03-18T12:22:59.825Z,812.99
2019-03-18T12:23:59.827Z,812.98
2019-03-18T12:24:59.838Z,812.93
2019-03-18T12:25:59.842Z,812.94
2019-03-18T12:26:59.846Z,812.95
2019-03-18T12:27:59.860Z,813.01
2019-03-18T12:28:59.862Z,812.96